Time;durP1;ratioP1;P1;durP2;ratioP2;P2;SDS_P1;SDS_P2;PMS_P1;PMS_P2;Temp;Humidity;BMP_temperature;BMP_pressure;BME280_temperature;BME280_humidity;BME280_pressure;Samples;Min_cycle;Max_cycle;Signal;HPM_P1;HPM_P2
2024/04/01 00:02:24;;;;;;;13.02;8.95;;;8.70;99.90;;;;;;4950035;29;20136;-74
2024/04/01 00:04:50;;;;;;;14.45;9.50;;;8.70;99.90;;;;;;4966178;29;20032;-74
2024/04/01 00:07:15;;;;;;;11.70;8.82;;;8.70;99.90;;;;;;4969382;28;20038;-74
2024/04/01 00:09:41;;;;;;;9.65;7.32;;;8.70;99.90;;;;;;4987675;28;20031;-74
2024/04/01 00:12:07;;;;;;;10.43;7.95;;;8.70;99.90;;;;;;4990660;28;20191;-74
2024/04/01 00:14:33;;;;;;;11.38;7.65;;;8.80;99.90;;;;;;4992125;28;20026;-76
2024/04/01 00:16:59;;;;;;;10.27;6.55;;;8.80;99.90;;;;;;4991537;28;20034;-74
2024/04/01 00:19:24;;;;;;;11.75;7.45;;;8.80;99.90;;;;;;4990984;28;20041;-74
2024/04/01 00:21:50;;;;;;;10.85;7.18;;;8.80;99.90;;;;;;4957859;28;20069;-74
2024/04/01 00:24:16;;;;;;;9.32;6.55;;;8.90;99.90;;;;;;4973209;28;20022;-74
2024/04/01 00:26:41;;;;;;;10.63;6.85;;;8.90;99.90;;;;;;4973333;28;20026;-74
2024/04/01 00:29:07;;;;;;;9.30;6.78;;;8.90;99.90;;;;;;4973013;28;20030;-74
2024/04/01 00:31:32;;;;;;;8.38;6.43;;;8.90;99.90;;;;;;4956918;28;20038;-74
2024/04/01 00:33:58;;;;;;;8.73;6.63;;;9.00;99.90;;;;;;4972726;28;20026;-73
2024/04/01 00:36:25;;;;;;;10.30;6.10;;;9.00;99.90;;;;;;4956882;28;20031;-74
2024/04/01 00:38:50;;;;;;;9.45;6.70;;;9.00;99.90;;;;;;4957193;28;20037;-74
2024/04/01 00:41:19;;;;;;;9.57;6.75;;;9.00;99.90;;;;;;4972666;28;20288;-74
2024/04/01 00:43:45;;;;;;;11.30;6.18;;;9.00;99.90;;;;;;4972822;28;20031;-74
2024/04/01 00:46:11;;;;;;;7.55;5.75;;;9.00;99.90;;;;;;4989646;28;20078;-74
2024/04/01 00:48:37;;;;;;;10.75;6.28;;;9.00;99.90;;;;;;4972568;28;20027;-74
2024/04/01 00:51:03;;;;;;;7.38;5.78;;;9.00;99.90;;;;;;4956449;28;20030;-74
2024/04/01 00:53:28;;;;;;;7.90;6.18;;;9.00;99.90;;;;;;4972525;28;20273;-74
2024/04/01 00:55:54;;;;;;;9.68;6.57;;;9.00;99.90;;;;;;4956634;28;20031;-74
2024/04/01 00:58:19;;;;;;;8.55;6.15;;;9.00;99.90;;;;;;4972364;28;20169;-74
2024/04/01 01:00:46;;;;;;;10.73;6.60;;;9.10;99.90;;;;;;4972561;28;20166;-74
2024/04/01 01:03:12;;;;;;;13.55;7.43;;;9.10;99.90;;;;;;4956334;28;20269;-74
2024/04/01 01:05:37;;;;;;;10.30;6.93;;;9.10;99.90;;;;;;4972278;28;20090;-73
2024/04/01 01:08:04;;;;;;;13.10;6.97;;;9.10;99.90;;;;;;4956226;28;20069;-74
2024/04/01 01:10:31;;;;;;;10.20;6.68;;;9.10;99.90;;;;;;4989413;28;20065;-74
2024/04/01 01:12:57;;;;;;;11.95;6.80;;;9.10;99.90;;;;;;4953638;28;20078;-74
2024/04/01 01:15:24;;;;;;;9.27;6.78;;;9.10;99.90;;;;;;4972861;28;20085;-74
2024/04/01 01:17:50;;;;;;;11.07;6.55;;;9.10;99.90;;;;;;4972346;28;20041;-74
2024/04/01 01:20:16;;;;;;;8.68;5.90;;;9.10;99.90;;;;;;4973402;28;20027;-74
2024/04/01 01:22:42;;;;;;;11.15;6.38;;;9.10;99.90;;;;;;4971351;28;20034;-74
2024/04/01 01:25:08;;;;;;;9.90;6.38;;;9.10;99.90;;;;;;4972965;28;20030;-74
2024/04/01 01:27:38;;;;;;;11.65;6.82;;;9.10;99.90;;;;;;4940387;28;20054;-74
2024/04/01 01:30:04;;;;;;;10.25;5.68;;;9.10;99.90;;;;;;4973140;28;20066;-74
2024/04/01 01:32:33;;;;;;;8.65;5.93;;;9.10;99.90;;;;;;4955710;28;20018;-74
2024/04/01 01:34:58;;;;;;;11.00;6.40;;;9.10;99.90;;;;;;4956921;28;20023;-74
2024/04/01 01:37:24;;;;;;;11.82;6.90;;;9.00;99.90;;;;;;4971814;28;20040;-73
2024/04/01 01:39:50;;;;;;;10.13;6.25;;;9.10;99.90;;;;;;4955976;28;20087;-74
2024/04/01 01:42:15;;;;;;;11.07;6.55;;;9.10;99.90;;;;;;4955944;28;20085;-74
2024/04/01 01:44:41;;;;;;;9.93;5.85;;;9.10;99.90;;;;;;4989518;28;20280;-74
2024/04/01 01:47:06;;;;;;;11.48;6.70;;;9.10;99.90;;;;;;4989758;28;20018;-75
2024/04/01 01:49:32;;;;;;;8.93;6.53;;;9.10;99.90;;;;;;4989076;28;20030;-75
2024/04/01 01:51:58;;;;;;;9.68;6.35;;;9.10;99.90;;;;;;4971496;28;20042;-74
2024/04/01 01:54:23;;;;;;;11.27;6.38;;;9.00;99.90;;;;;;4988291;28;20276;-75
2024/04/01 01:56:49;;;;;;;9.98;5.95;;;9.00;99.90;;;;;;4988601;28;20035;-75
2024/04/01 01:59:15;;;;;;;13.32;6.90;;;9.00;99.90;;;;;;4971262;28;20196;-75
2024/04/01 02:01:40;;;;;;;12.23;6.38;;;9.00;99.90;;;;;;4955291;28;20019;-74
2024/04/01 02:04:06;;;;;;;12.07;6.95;;;9.00;99.90;;;;;;4971255;28;20269;-75
2024/04/01 02:06:32;;;;;;;10.73;6.13;;;9.10;99.90;;;;;;4955095;28;20161;-75
2024/04/01 02:08:57;;;;;;;11.30;6.45;;;9.10;99.90;;;;;;4970994;28;20271;-75
2024/04/01 02:11:23;;;;;;;9.95;6.50;;;9.00;99.90;;;;;;4970921;28;20263;-75
2024/04/01 02:13:49;;;;;;;11.23;6.03;;;9.00;99.90;;;;;;4955148;28;20058;-75
2024/04/01 02:16:14;;;;;;;13.65;7.13;;;9.00;99.90;;;;;;4988239;28;20022;-75
2024/04/01 02:18:40;;;;;;;10.90;6.53;;;9.00;99.90;;;;;;4971045;28;20303;-75
2024/04/01 02:21:05;;;;;;;11.85;6.35;;;9.00;99.90;;;;;;4970861;28;20026;-75
2024/04/01 02:23:31;;;;;;;10.90;6.28;;;9.00;99.90;;;;;;4970729;28;20292;-75
2024/04/01 02:26:04;;;;;;;9.63;6.63;;;9.00;99.90;;;;;;4970323;28;20034;-75
2024/04/01 02:28:33;;;;;;;12.25;6.10;;;9.00;99.90;;;;;;4954722;28;20049;-75
2024/04/01 02:30:59;;;;;;;10.60;6.93;;;9.00;99.90;;;;;;4970910;28;20031;-74
2024/04/01 02:33:25;;;;;;;10.93;6.25;;;9.00;99.90;;;;;;4938808;28;20110;-74
2024/04/01 02:35:51;;;;;;;11.82;7.22;;;9.10;99.90;;;;;;4987369;28;20037;-74
2024/04/01 02:38:17;;;;;;;12.23;7.22;;;9.10;99.90;;;;;;4954349;28;20030;-74
2024/04/01 02:40:43;;;;;;;10.80;6.80;;;9.00;99.90;;;;;;4954153;28;20066;-74
2024/04/01 02:43:09;;;;;;;11.55;7.80;;;8.90;99.90;;;;;;4970320;28;20038;-74
2024/04/01 02:45:34;;;;;;;11.32;6.53;;;8.90;99.90;;;;;;4938294;28;20086;-74
2024/04/01 02:48:00;;;;;;;10.55;6.13;;;8.90;99.90;;;;;;4987537;28;20042;-74
2024/04/01 02:50:26;;;;;;;10.00;6.30;;;8.90;99.90;;;;;;4970145;28;20094;-74
2024/04/01 02:52:51;;;;;;;12.13;6.88;;;8.90;99.90;;;;;;4954419;28;20023;-75
2024/04/01 02:55:18;;;;;;;10.52;5.97;;;8.90;99.90;;;;;;4938515;28;20196;-75
2024/04/01 02:57:44;;;;;;;11.52;6.50;;;8.90;99.90;;;;;;4953906;28;20046;-75
2024/04/01 03:00:17;;;;;;;11.05;5.90;;;8.90;99.90;;;;;;4954297;28;20086;-75
2024/04/01 03:02:46;;;;;;;11.98;6.60;;;8.90;99.90;;;;;;4955876;28;20022;-75
2024/04/01 03:05:15;;;;;;;9.63;6.53;;;8.90;99.90;;;;;;4954259;28;20058;-75
2024/04/01 03:07:41;;;;;;;9.25;5.65;;;8.90;99.90;;;;;;4954275;28;20355;-75
2024/04/01 03:10:08;;;;;;;10.57;5.90;;;9.00;99.90;;;;;;4970163;28;20027;-75
2024/04/01 03:12:34;;;;;;;10.88;5.80;;;9.00;99.90;;;;;;4954155;28;20053;-75
2024/04/01 03:14:59;;;;;;;9.20;5.50;;;9.00;99.90;;;;;;4953662;28;20026;-75
2024/04/01 03:17:29;;;;;;;7.30;4.72;;;9.00;99.90;;;;;;4954021;28;20023;-75
2024/04/01 03:19:58;;;;;;;9.27;5.55;;;9.00;99.90;;;;;;4970373;28;20034;-75
2024/04/01 03:22:25;;;;;;;8.88;4.55;;;9.00;99.90;;;;;;4954362;28;20281;-75
2024/04/01 03:24:51;;;;;;;10.77;5.28;;;9.00;99.90;;;;;;4934706;28;20198;-75
2024/04/01 03:27:17;;;;;;;8.65;4.47;;;9.00;99.90;;;;;;4969701;28;20027;-75
2024/04/01 03:29:42;;;;;;;8.50;4.45;;;9.00;99.90;;;;;;4969609;28;20041;-75
2024/04/01 03:32:08;;;;;;;7.00;3.95;;;9.00;99.90;;;;;;4969796;28;20098;-75
2024/04/01 03:34:34;;;;;;;9.73;4.82;;;9.00;99.90;;;;;;4986700;28;20086;-75
2024/04/01 03:36:59;;;;;;;9.48;4.70;;;9.00;99.90;;;;;;4969638;28;20022;-75
2024/04/01 03:39:25;;;;;;;7.97;4.30;;;9.00;99.90;;;;;;4969569;28;20057;-75
2024/04/01 03:41:51;;;;;;;8.02;4.30;;;9.00;99.90;;;;;;4966281;28;20066;-75
2024/04/01 03:44:16;;;;;;;7.25;3.63;;;9.00;99.90;;;;;;4945566;28;20029;-75
2024/04/01 03:46:43;;;;;;;6.38;4.03;;;9.00;99.90;;;;;;4968926;28;20061;-75
2024/04/01 03:49:09;;;;;;;7.15;4.10;;;9.00;99.90;;;;;;4937684;28;20124;-75
2024/04/01 03:51:35;;;;;;;7.68;4.13;;;9.00;99.90;;;;;;4969459;28;20284;-75
2024/04/01 03:54:00;;;;;;;6.25;3.92;;;9.00;99.90;;;;;;4969554;28;20035;-75
2024/04/01 03:56:26;;;;;;;6.25;4.03;;;9.00;99.90;;;;;;4986246;28;20291;-75
2024/04/01 03:58:53;;;;;;;6.93;3.90;;;9.00;99.90;;;;;;4950157;28;20312;-75
2024/04/01 04:01:37;;;;;;;6.93;3.90;;;9.00;99.90;;;;;;4937471;28;20065;-75
2024/04/01 04:04:03;;;;;;;6.00;3.97;;;9.00;99.90;;;;;;4969421;28;20031;-75
2024/04/01 04:06:29;;;;;;;6.35;4.05;;;9.00;99.90;;;;;;4969503;28;20137;-75
2024/04/01 04:08:57;;;;;;;6.22;3.85;;;9.00;99.90;;;;;;4969468;28;20022;-75
2024/04/01 04:11:22;;;;;;;5.82;3.65;;;9.00;99.90;;;;;;4954159;28;20103;-75
2024/04/01 04:13:48;;;;;;;7.45;3.58;;;9.00;99.90;;;;;;4953421;28;20030;-75
2024/04/01 04:16:14;;;;;;;6.07;3.30;;;9.00;99.90;;;;;;4969868;28;20033;-75
2024/04/01 04:18:39;;;;;;;5.05;3.35;;;9.00;99.90;;;;;;4953015;28;20042;-75
2024/04/01 04:21:09;;;;;;;5.47;3.38;;;9.00;99.90;;;;;;4969374;28;20019;-75
2024/04/01 04:23:35;;;;;;;;;;;9.00;99.90;;;;;;4969854;28;20288;-75
2024/04/01 04:26:00;;;;;;;7.20;3.33;;;9.00;99.90;;;;;;4969063;28;19977;-75
2024/04/01 04:28:26;;;;;;;5.93;3.55;;;8.90;99.90;;;;;;4937267;28;20030;-75
2024/04/01 04:30:52;;;;;;;6.13;2.95;;;8.90;99.90;;;;;;4952999;28;20027;-75
2024/04/01 04:33:19;;;;;;;4.32;2.90;;;8.90;99.90;;;;;;4953065;28;20031;-75
2024/04/01 04:35:47;;;;;;;5.80;3.05;;;8.90;99.90;;;;;;4969363;28;20031;-75
2024/04/01 04:38:12;;;;;;;5.40;3.25;;;8.90;99.90;;;;;;4969355;28;20035;-75
2024/04/01 04:40:39;;;;;;;6.75;2.90;;;8.90;99.90;;;;;;4968835;28;20054;-75
2024/04/01 04:43:04;;;;;;;4.50;2.63;;;8.90;99.90;;;;;;4986015;28;20176;-75
2024/04/01 04:45:31;;;;;;;5.50;3.10;;;8.90;99.90;;;;;;4969058;28;20027;-75
2024/04/01 04:47:57;;;;;;;6.18;3.17;;;8.90;99.90;;;;;;4986158;28;20031;-74
2024/04/01 04:50:22;;;;;;;7.35;3.13;;;9.00;99.90;;;;;;4933703;29;20252;-75
2024/04/01 04:52:48;;;;;;;8.50;3.30;;;9.00;99.90;;;;;;4949249;28;20030;-75
2024/04/01 04:55:15;;;;;;;6.13;2.95;;;9.00;99.90;;;;;;4968953;28;20057;-75
2024/04/01 04:57:40;;;;;;;8.40;3.10;;;9.00;99.90;;;;;;4970036;28;20165;-75
2024/04/01 05:00:22;;;;;;;5.78;3.28;;;9.00;99.90;;;;;;4956493;28;20033;-75
2024/04/01 05:02:48;;;;;;;5.32;3.13;;;9.10;99.90;;;;;;4974556;28;20041;-75
2024/04/01 05:05:20;;;;;;;4.88;2.90;;;9.10;99.90;;;;;;4956452;28;20023;-75
2024/04/01 05:07:48;;;;;;;5.65;3.00;;;9.10;99.90;;;;;;4957063;28;20281;-75
2024/04/01 05:10:14;;;;;;;7.07;3.20;;;9.10;99.90;;;;;;4972162;28;20092;-75
2024/04/01 05:12:39;;;;;;;6.68;3.80;;;9.10;99.90;;;;;;4956145;28;20205;-75
2024/04/01 05:15:05;;;;;;;5.07;3.15;;;9.10;99.90;;;;;;4956084;28;20030;-75
2024/04/01 05:17:32;;;;;;;5.40;2.92;;;9.10;99.90;;;;;;4972113;28;20025;-76
2024/04/01 05:19:58;;;;;;;5.10;2.63;;;9.10;99.90;;;;;;4971842;28;20058;-74
2024/04/01 05:22:27;;;;;;;4.72;2.67;;;9.10;99.90;;;;;;4972036;28;20038;-75
2024/04/01 05:24:54;;;;;;;4.68;2.85;;;9.10;99.90;;;;;;4956148;28;20015;-75
2024/04/01 05:27:20;;;;;;;8.90;3.67;;;9.10;99.90;;;;;;4940010;28;20343;-74
2024/04/01 05:30:02;;;;;;;9.30;3.17;;;9.10;99.90;;;;;;4956042;28;20097;-75
2024/04/01 05:32:28;;;;;;;7.60;3.42;;;9.10;99.90;;;;;;4958435;28;20037;-75
2024/04/01 05:34:54;;;;;;;5.68;2.90;;;9.10;99.90;;;;;;4971980;28;20027;-75
2024/04/01 05:37:22;;;;;;;7.32;3.20;;;9.20;99.90;;;;;;4971702;28;20341;-75
2024/04/01 05:39:48;;;;;;;5.13;2.72;;;9.20;99.90;;;;;;4956278;28;20027;-75
2024/04/01 05:42:13;;;;;;;5.60;3.05;;;9.20;99.90;;;;;;4988816;28;20046;-76
2024/04/01 05:44:39;;;;;;;6.18;3.22;;;9.20;99.90;;;;;;4971449;28;20030;-75
2024/04/01 05:47:05;;;;;;;10.00;3.38;;;9.10;99.90;;;;;;4939377;28;20034;-75
2024/04/01 05:49:30;;;;;;;5.50;3.30;;;9.20;99.90;;;;;;4971336;28;20062;-75
2024/04/01 05:51:56;;;;;;;6.85;3.53;;;9.20;99.90;;;;;;4971354;28;20276;-75
2024/04/01 05:54:22;;;;;;;7.43;3.45;;;9.20;99.90;;;;;;4988362;28;20180;-75
2024/04/01 05:56:47;;;;;;;5.40;3.47;;;9.20;99.90;;;;;;4939398;28;20030;-75
2024/04/01 05:59:13;;;;;;;7.45;3.67;;;9.20;99.90;;;;;;4971044;28;20335;-75
2024/04/01 06:01:39;;;;;;;6.53;3.65;;;9.20;99.90;;;;;;4971175;28;20334;-75
2024/04/01 06:04:04;;;;;;;4.43;3.28;;;9.20;99.90;;;;;;4955261;28;20263;-75
2024/04/01 06:06:30;;;;;;;8.73;3.75;;;9.20;99.90;;;;;;4971272;28;20015;-75
2024/04/01 06:08:55;;;;;;;6.40;3.50;;;9.20;99.90;;;;;;4970373;28;20081;-75
2024/04/01 06:11:21;;;;;;;8.52;3.80;;;9.20;99.90;;;;;;4971018;28;20082;-75
2024/04/01 06:13:47;;;;;;;4.45;3.40;;;9.30;99.90;;;;;;4971177;28;20037;-75
2024/04/01 06:16:13;;;;;;;4.88;3.33;;;9.30;99.90;;;;;;4988199;28;20030;-75
2024/04/01 06:18:39;;;;;;;7.72;3.95;;;9.30;99.90;;;;;;4955267;28;20045;-75
2024/04/01 06:21:05;;;;;;;5.43;3.28;;;9.30;99.90;;;;;;4987806;28;20164;-75
2024/04/01 06:23:31;;;;;;;5.18;3.13;;;9.30;99.90;;;;;;4970904;28;20027;-75
2024/04/01 06:25:57;;;;;;;5.78;3.40;;;9.30;99.90;;;;;;4970465;28;20086;-75
2024/04/01 06:28:23;;;;;;;6.53;3.85;;;9.30;99.90;;;;;;4987773;28;20327;-75
2024/04/01 06:30:49;;;;;;;5.43;3.47;;;9.30;99.90;;;;;;4987800;28;20054;-75
2024/04/01 06:33:15;;;;;;;5.00;3.47;;;9.30;99.90;;;;;;4987533;28;20031;-75
2024/04/01 06:35:41;;;;;;;5.47;3.97;;;9.30;99.90;;;;;;4987705;28;20023;-75
2024/04/01 06:38:06;;;;;;;6.28;4.38;;;9.30;99.90;;;;;;4954685;28;20102;-75
2024/04/01 06:40:36;;;;;;;6.57;3.75;;;9.30;99.90;;;;;;4954186;28;20058;-75
2024/04/01 06:43:01;;;;;;;7.97;3.92;;;9.30;99.90;;;;;;4954744;28;20023;-75
2024/04/01 06:45:27;;;;;;;7.70;3.72;;;9.30;99.90;;;;;;4987551;28;20042;-75
2024/04/01 06:47:53;;;;;;;6.00;3.53;;;9.40;99.90;;;;;;4970408;28;20181;-75
2024/04/01 06:50:19;;;;;;;5.70;3.53;;;9.40;99.90;;;;;;4987042;28;20294;-75
2024/04/01 06:52:45;;;;;;;5.53;3.70;;;9.40;99.90;;;;;;4954595;28;20037;-75
2024/04/01 06:55:11;;;;;;;5.97;4.05;;;9.40;99.90;;;;;;4954228;28;20066;-75
2024/04/01 06:57:36;;;;;;;6.05;3.33;;;9.40;99.90;;;;;;4954098;28;20023;-75
2024/04/01 07:00:04;;;;;;;5.93;3.40;;;9.40;99.90;;;;;;4970082;28;20049;-75
2024/04/01 07:02:30;;;;;;;5.38;3.03;;;9.40;99.90;;;;;;4954364;28;20031;-75
2024/04/01 07:04:57;;;;;;;6.72;3.50;;;9.40;99.90;;;;;;4953981;28;20113;-75
2024/04/01 07:07:22;;;;;;;5.53;3.45;;;9.40;99.90;;;;;;4953855;28;20162;-75
2024/04/01 07:09:48;;;;;;;6.97;3.72;;;9.30;99.90;;;;;;4954097;28;20057;-76
2024/04/01 07:12:15;;;;;;;5.88;3.72;;;9.30;99.90;;;;;;4969690;28;20034;-76
2024/04/01 07:14:41;;;;;;;6.70;3.90;;;9.40;99.90;;;;;;4969776;28;20060;-76
2024/04/01 07:17:07;;;;;;;7.00;3.83;;;9.40;99.90;;;;;;4986899;28;20281;-76
2024/04/01 07:19:33;;;;;;;5.32;3.22;;;9.40;99.90;;;;;;4986902;28;20022;-76
2024/04/01 07:21:58;;;;;;;5.15;3.40;;;9.40;99.90;;;;;;4953913;28;20031;-76
2024/04/01 07:24:24;;;;;;;6.25;3.08;;;9.40;99.90;;;;;;4986599;28;20030;-76
2024/04/01 07:26:50;;;;;;;5.65;3.08;;;9.40;99.90;;;;;;4969723;28;20023;-76
2024/04/01 07:29:15;;;;;;;6.90;3.80;;;9.30;99.90;;;;;;4937623;28;20046;-76
2024/04/01 07:31:42;;;;;;;6.22;3.20;;;9.40;99.90;;;;;;4969694;28;20035;-76
2024/04/01 07:34:08;;;;;;;7.53;3.65;;;9.40;99.90;;;;;;4954000;28;20037;-76
2024/04/01 07:36:34;;;;;;;7.32;3.85;;;9.40;99.90;;;;;;4953509;28;20019;-76
2024/04/01 07:39:00;;;;;;;6.15;3.50;;;9.30;99.90;;;;;;4953538;28;20088;-76
2024/04/01 07:41:25;;;;;;;4.53;3.53;;;9.20;99.90;;;;;;4937849;28;20058;-76
2024/04/01 07:43:51;;;;;;;5.53;4.07;;;9.30;99.90;;;;;;4969185;28;20302;-76
2024/04/01 07:46:17;;;;;;;6.45;4.07;;;9.30;99.90;;;;;;4969345;28;20307;-76
2024/04/01 07:48:42;;;;;;;5.93;4.18;;;9.40;99.90;;;;;;4969215;28;20110;-76
2024/04/01 07:51:08;;;;;;;6.05;4.22;;;9.40;99.90;;;;;;4986277;28;20022;-76
2024/04/01 07:53:33;;;;;;;6.13;4.25;;;9.40;99.90;;;;;;4937546;28;20050;-75
2024/04/01 07:55:59;;;;;;;6.30;4.40;;;9.40;99.90;;;;;;4986511;28;20058;-75
2024/04/01 07:58:25;;;;;;;7.43;4.57;;;9.30;99.90;;;;;;4953278;28;20082;-76
2024/04/01 08:00:52;;;;;;;7.22;4.68;;;9.40;99.90;;;;;;4952974;28;20026;-76
2024/04/01 08:03:17;;;;;;;5.85;4.55;;;9.50;99.90;;;;;;4953524;28;20027;-75
2024/04/01 08:05:43;;;;;;;7.88;4.95;;;9.50;99.90;;;;;;4969301;28;20086;-76
2024/04/01 08:08:09;;;;;;;6.10;4.20;;;9.50;99.90;;;;;;4986291;28;20049;-76
2024/04/01 08:10:36;;;;;;;8.55;4.93;;;9.50;99.90;;;;;;4969241;28;20033;-76
2024/04/01 08:13:01;;;;;;;6.57;5.40;;;9.50;99.90;;;;;;4969293;28;20111;-76
2024/04/01 08:15:27;;;;;;;5.53;4.75;;;9.50;99.90;;;;;;4953041;28;20038;-75
2024/04/01 08:17:53;;;;;;;5.95;4.93;;;9.40;99.90;;;;;;4968914;28;20031;-76
2024/04/01 08:20:19;;;;;;;6.93;5.03;;;9.50;99.90;;;;;;4953124;28;20026;-76
2024/04/01 08:22:44;;;;;;;5.93;5.25;;;9.50;99.90;;;;;;4953186;28;20027;-76
2024/04/01 08:25:10;;;;;;;6.38;4.32;;;9.50;99.90;;;;;;4969054;28;20031;-76
2024/04/01 08:27:36;;;;;;;6.90;5.22;;;9.50;99.90;;;;;;4969296;28;20050;-76
2024/04/01 08:30:02;;;;;;;6.50;4.50;;;9.40;99.90;;;;;;4953090;28;20034;-76
2024/04/01 08:32:27;;;;;;;7.95;5.32;;;9.50;99.90;;;;;;4954044;28;20090;-76
2024/04/01 08:34:53;;;;;;;5.15;4.20;;;9.50;99.90;;;;;;4956705;28;20041;-77
2024/04/01 08:37:19;;;;;;;6.22;4.95;;;9.40;99.90;;;;;;4956765;28;20066;-76
2024/04/01 08:39:44;;;;;;;5.40;4.40;;;9.40;99.90;;;;;;4956512;28;20027;-76
2024/04/01 08:42:11;;;;;;;6.18;4.35;;;9.40;99.90;;;;;;4956720;28;20300;-76
2024/04/01 08:44:36;;;;;;;7.07;4.75;;;9.40;99.90;;;;;;4956496;28;20105;-76
2024/04/01 08:47:02;;;;;;;5.97;4.25;;;9.40;99.90;;;;;;4972409;28;20236;-76
2024/04/01 08:49:48;;;;;;;4.38;3.38;;;9.40;99.90;;;;;;4956555;28;20023;-76
2024/04/01 08:52:15;;;;;;;5.45;3.40;;;9.40;99.90;;;;;;4972639;28;20061;-75
2024/04/01 08:54:41;;;;;;;11.20;10.38;;;9.50;99.90;;;;;;4956671;28;20023;-77
2024/04/01 08:57:07;;;;;;;4.65;3.38;;;9.50;99.90;;;;;;4956614;28;20372;-76
2024/04/01 08:59:34;;;;;;;5.07;3.38;;;9.60;99.90;;;;;;4956386;28;20089;-75
2024/04/01 09:02:01;;;;;;;5.25;3.63;;;9.60;99.90;;;;;;4956548;28;20062;-77
2024/04/01 09:04:27;;;;;;;4.18;3.45;;;9.70;99.90;;;;;;4972552;28;20270;-77
2024/04/01 09:06:53;;;;;;;5.63;3.45;;;9.70;99.90;;;;;;4956300;28;20027;-77
2024/04/01 09:09:19;;;;;;;7.50;3.25;;;9.70;99.90;;;;;;4956359;28;20331;-77
2024/04/01 09:11:44;;;;;;;5.13;3.15;;;9.70;99.90;;;;;;4989420;28;20034;-78
2024/04/01 09:14:10;;;;;;;4.50;2.90;;;9.70;99.90;;;;;;4989185;28;20034;-77
2024/04/01 09:16:36;;;;;;;4.60;2.72;;;9.70;99.90;;;;;;4956248;28;20082;-77
2024/04/01 09:19:07;;;;;;;4.50;2.83;;;9.70;99.90;;;;;;4955735;28;20101;-76
2024/04/01 09:21:33;;;;;;;3.65;2.70;;;9.70;99.90;;;;;;4972540;28;20146;-77
2024/04/01 09:23:58;;;;;;;4.00;2.67;;;9.70;99.90;;;;;;4955836;28;20027;-76
2024/04/01 09:26:33;;;;;;;4.53;2.65;;;9.60;99.90;;;;;;4939958;28;20026;-77
2024/04/01 09:28:59;;;;;;;3.20;2.35;;;9.60;99.90;;;;;;4956156;28;20034;-76
2024/04/01 09:31:25;;;;;;;4.18;2.53;;;9.60;99.90;;;;;;4939934;28;20022;-77
2024/04/01 09:33:51;;;;;;;3.42;1.80;;;9.50;99.90;;;;;;4955742;28;20082;-76
2024/04/01 09:36:17;;;;;;;2.35;1.67;;;9.50;99.90;;;;;;4971734;28;20086;-77
2024/04/01 09:38:42;;;;;;;3.65;1.77;;;9.40;99.90;;;;;;4955519;28;20023;-75
2024/04/01 09:41:08;;;;;;;3.03;1.98;;;9.40;99.90;;;;;;4971448;28;20051;-75
2024/04/01 09:43:34;;;;;;;2.75;1.70;;;9.40;99.90;;;;;;4954814;28;20101;-75
2024/04/01 09:46:00;;;;;;;1.95;1.48;;;9.40;99.90;;;;;;4955117;28;20030;-75
2024/04/01 09:48:26;;;;;;;2.80;1.80;;;9.30;99.90;;;;;;4955303;28;20058;-75
2024/04/01 09:50:55;;;;;;;2.10;1.65;;;9.30;99.90;;;;;;4939401;28;20035;-75
2024/04/01 09:53:21;;;;;;;2.03;1.77;;;9.30;99.90;;;;;;4971339;28;20093;-75
2024/04/01 09:56:06;;;;;;;4.15;2.10;;;9.30;99.90;;;;;;4955309;28;20315;-74
2024/04/01 09:58:50;;;;;;;2.65;2.30;;;9.30;99.90;;;;;;4987952;28;20031;-75
2024/04/01 10:01:31;;;;;;;3.47;1.80;;;9.30;99.90;;;;;;4988015;28;20026;-75
2024/04/01 10:03:59;;;;;;;4.82;2.30;;;9.40;99.90;;;;;;4970907;28;20109;-75
2024/04/01 10:07:06;;;;;;;2.90;2.00;;;9.40;99.90;;;;;;4987713;28;20035;-75
2024/04/01 10:10:03;;;;;;;4.88;2.30;;;9.40;99.90;;;;;;4955556;28;20053;-75
2024/04/01 10:12:51;;;;;;;2.55;1.88;;;9.50;99.90;;;;;;4973467;28;20023;-75
2024/04/01 10:15:44;;;;;;;2.20;1.90;;;9.50;99.90;;;;;;4987937;28;20030;-75
2024/04/01 10:18:40;;;;;;;3.58;2.20;;;9.50;99.90;;;;;;4970527;28;20045;-76
2024/04/01 10:21:06;;;;;;;3.95;2.10;;;9.50;99.90;;;;;;4987470;28;20056;-75
2024/04/01 10:23:43;;;;;;;4.03;1.88;;;9.50;99.90;;;;;;4987866;28;20034;-75
2024/04/01 10:26:15;;;;;;;2.83;1.95;;;9.50;99.90;;;;;;4987760;28;20031;-75
2024/04/01 10:29:17;;;;;;;2.85;2.30;;;9.50;99.90;;;;;;4987684;28;20085;-75
2024/04/01 10:32:20;;;;;;;3.10;2.53;;;9.60;99.90;;;;;;4954459;28;20062;-75
2024/04/01 10:35:28;;;;;;;3.97;2.30;;;9.70;99.90;;;;;;4970177;28;20304;-74
2024/04/01 10:38:37;;;;;;;2.58;2.05;;;9.70;99.90;;;;;;4979371;28;20046;-74
2024/04/01 10:41:33;;;;;;;3.83;2.42;;;9.80;99.90;;;;;;4965646;28;20062;-76
2024/04/01 10:44:20;;;;;;;5.20;2.50;;;9.70;99.90;;;;;;4987377;28;20090;-74
2024/04/01 10:46:54;;;;;;;2.90;2.17;;;9.80;99.90;;;;;;4987352;28;20037;-76
2024/04/01 10:49:54;;;;;;;3.78;1.98;;;9.80;99.90;;;;;;4987320;28;20045;-76
2024/04/01 10:52:28;;;;;;;5.67;2.70;;;9.90;99.90;;;;;;4969817;28;20177;-76
2024/04/01 10:55:03;;;;;;;2.70;1.98;;;10.00;99.90;;;;;;4986714;28;20035;-77
2024/04/01 10:57:50;;;;;;;3.65;2.20;;;9.80;99.90;;;;;;4987191;28;20170;-77
2024/04/01 11:00:40;;;;;;;3.70;2.20;;;9.80;99.90;;;;;;4987060;28;20035;-74
2024/04/01 11:03:24;;;;;;;4.18;2.40;;;9.70;99.90;;;;;;4953974;28;20033;-74
2024/04/01 11:06:09;;;;;;;4.43;2.38;;;9.80;99.90;;;;;;4987467;28;20086;-77
2024/04/01 11:09:00;;;;;;;4.00;2.28;;;9.90;99.90;;;;;;4986969;28;20030;-77
2024/04/01 11:11:37;;;;;;;5.10;2.33;;;10.00;99.90;;;;;;4956360;28;20038;-77
2024/04/01 11:14:03;;;;;;;4.90;2.95;;;10.00;99.90;;;;;;4970203;28;20211;-74
2024/04/01 11:16:32;;;;;;;3.00;2.40;;;10.10;99.90;;;;;;4937599;28;20279;-74
2024/04/01 11:19:32;;;;;;;4.38;2.47;;;10.00;99.90;;;;;;4954514;28;20034;-76
2024/04/01 11:21:59;;;;;;;3.38;2.50;;;10.10;99.90;;;;;;4969745;28;20299;-74
2024/04/01 11:24:28;;;;;;;3.80;2.80;;;10.10;99.90;;;;;;4953795;28;20026;-75
2024/04/01 11:27:16;;;;;;;4.53;3.17;;;10.20;99.90;;;;;;4986941;28;20090;-74
2024/04/01 11:30:01;;;;;;;4.35;3.03;;;10.20;99.90;;;;;;4969476;28;20030;-75
2024/04/01 11:32:32;;;;;;;5.03;3.10;;;10.10;99.90;;;;;;4954135;28;20035;-75
2024/04/01 11:35:23;;;;;;;4.50;3.53;;;10.20;99.90;;;;;;4954055;28;20058;-75
2024/04/01 11:38:03;;;;;;;5.05;3.80;;;10.20;99.90;;;;;;4954354;28;20026;-75
2024/04/01 11:40:30;;;;;;;;;;;10.30;99.90;;;;;;4954890;28;20054;-76
2024/04/01 11:43:01;;;;;;;6.15;4.10;;;10.30;99.90;;;;;;4953217;28;19921;-76
2024/04/01 11:45:30;;;;;;;4.85;3.53;;;10.40;99.90;;;;;;4953532;28;20018;-76
2024/04/01 11:47:56;;;;;;;7.20;3.75;;;10.30;99.90;;;;;;4953802;28;20101;-75
2024/04/01 11:50:21;;;;;;;7.30;4.00;;;10.40;99.90;;;;;;4969612;28;20038;-77
2024/04/01 11:53:00;;;;;;;6.07;3.83;;;10.50;99.90;;;;;;4969559;28;20164;-76
2024/04/01 11:55:26;;;;;;;7.03;4.10;;;10.60;99.90;;;;;;4953211;28;20037;-76
2024/04/01 11:57:52;;;;;;;7.28;4.22;;;10.50;99.90;;;;;;4968881;28;20023;-75
2024/04/01 12:00:18;;;;;;;6.43;3.70;;;10.40;99.90;;;;;;4953377;28;20027;-75
2024/04/01 12:02:54;;;;;;;4.82;3.13;;;10.50;99.90;;;;;;4986245;28;20034;-74
2024/04/01 12:05:19;;;;;;;7.15;3.90;;;10.50;99.90;;;;;;4986252;28;20161;-76
2024/04/01 12:07:46;;;;;;;4.72;3.53;;;10.50;99.90;;;;;;4970763;28;20038;-76
2024/04/01 12:10:14;;;;;;;7.60;4.40;;;10.70;99.90;;;;;;4990118;28;20220;-75
2024/04/01 12:12:39;;;;;;;7.28;4.88;;;10.90;99.90;;;;;;4941299;28;20037;-75
2024/04/01 12:15:05;;;;;;;8.45;4.00;;;11.00;99.90;;;;;;4972921;28;20035;-75
2024/04/01 12:17:32;;;;;;;5.93;3.70;;;11.00;99.90;;;;;;4957418;28;20041;-75
2024/04/01 12:19:59;;;;;;;7.13;5.25;;;11.00;99.90;;;;;;4957057;28;20183;-76
2024/04/01 12:22:25;;;;;;;5.03;3.55;;;11.10;99.90;;;;;;4957125;28;20050;-76
2024/04/01 12:24:51;;;;;;;20.50;15.57;;;11.10;99.90;;;;;;4973069;28;20038;-76
2024/04/01 12:27:16;;;;;;;10.98;7.30;;;11.20;99.90;;;;;;4956607;28;20027;-76
2024/04/01 12:29:42;;;;;;;7.32;4.53;;;11.30;99.90;;;;;;4972414;28;20042;-75
2024/04/01 12:32:11;;;;;;;4.15;3.03;;;11.30;99.90;;;;;;4972743;28;20292;-75
2024/04/01 12:34:36;;;;;;;4.20;2.83;;;11.20;99.90;;;;;;4957304;28;20196;-76
2024/04/01 12:37:02;;;;;;;4.63;2.97;;;11.00;99.90;;;;;;4940627;28;20035;-75
2024/04/01 12:39:29;;;;;;;13.02;6.75;;;11.20;99.90;;;;;;4956353;28;20162;-75
2024/04/01 12:41:54;;;;;;;5.78;4.32;;;11.20;99.90;;;;;;4972803;28;20050;-76
2024/04/01 12:44:20;;;;;;;5.75;3.35;;;11.10;99.90;;;;;;4971934;28;20015;-76
2024/04/01 12:46:46;;;;;;;5.90;4.10;;;11.20;99.90;;;;;;4956345;28;20023;-76
2024/04/01 12:49:14;;;;;;;5.63;3.60;;;11.30;99.90;;;;;;4972086;28;20090;-76
2024/04/01 12:51:41;;;;;;;6.35;4.57;;;11.50;99.90;;;;;;4972093;28;20300;-75
2024/04/01 12:54:22;;;;;;;5.95;4.13;;;11.70;99.90;;;;;;4972150;28;20035;-76
2024/04/01 12:56:57;;;;;;;4.93;4.00;;;11.90;99.90;;;;;;4989404;28;20277;-75
2024/04/01 12:59:44;;;;;;;5.30;3.75;;;12.10;99.90;;;;;;4956850;28;20187;-76
2024/04/01 13:02:29;;;;;;;4.95;3.35;;;12.30;99.90;;;;;;4988738;28;20027;-75